CheckWX is a tool to help pilots better visualize weather data.  It is not intended as a substitute for an official pre-flight weather briefing.

14:50:34 UTC

SPCL TAF
Cap FAP David Abenzur Rengifo International Airport
Pucallpa, Peru
SPCL 231100Z 2312/2412 09004KT 9999 BKN015 BKN080 TX30/2319Z TN23/2411Z TEMPO 2312/2314 7000 -RA BKN010 BKN070 TEMPO 2321/2403 06012KT 4000 SHRA BKN015 FEW025TCU BKN070 BECMG 2409/2412 8000 BKN008 BKN070

Mar-23@
12:00 UTC

Mar-23 @ 12:00 UTC

Mar-24@
09:00 UTC

Mar-24 @ 09:00 UTC

SPCL 231100Z 2312/2412 09004KT 9999 BKN015 BKN080 TX30/2319Z TN23/2411Z
Wind
  • 090° at 4 KTS
Cloud Levels
  • Broken at 1,500' AGL
  • Broken at 8,000' AGL

Mar-23@
12:00 UTC

Mar-23 @ 12:00 UTC

Mar-23@
14:00 UTC

Mar-23 @ 14:00 UTC

TEMPO 2312/2314 7000 -RA BKN010 BKN070

Expired

Conditions
Light Rain
Cloud Levels
  • Broken at 1,000' AGL
  • Broken at 7,000' AGL

Mar-23@
21:00 UTC

Mar-23 @ 21:00 UTC

Mar-24@
03:00 UTC

Mar-24 @ 03:00 UTC

TEMPO 2321/2403 06012KT 4000 SHRA BKN015 FEW025TCU BKN070

Temporary

Temporary Changes expected for less than half the time period

Wind
  • 060° at 12 KTS
Conditions
Rain
Cloud Levels
  • Broken at 1,500' AGL
  • Few at 2,500' AGL
  • Broken at 7,000' AGL

Mar-24@
09:00 UTC

Mar-24 @ 09:00 UTC

Mar-24@
12:00 UTC

Mar-24 @ 12:00 UTC

BECMG 2409/2412 8000 BKN008 BKN070

Becoming

Becoming Conditions expected by Sun, Mar 24, 2019 @ 12:00 UTC

Wind
  • 090° at 4 KTS
Cloud Levels
  • Broken at 800' AGL
  • Broken at 7,000' AGL